M I D A S
Marine Information and Data Acquisition System
Tripno 654 of the Zeeleeuw from 2004-02-24 07:13:44 to 2004-02-24 14:12:10
Back to CruiseResearch ActivitiesStationsMapUnderway DataData graphs

EquipmentUnitsComment
TimeDGPSUTC
LatitudeDGPSDM.mWGS84
LongitudeDGPSDM.mWGS84
HeadingGyrodeg 
SOGDGPSknotsSpeed over ground
COGDGPSdegCourse over ground
DepthEcho soundermeters200 kHz
Missing or incorrect values are displayed as -999
Navigation data collected by the RV Zeeleeuw from 2004-02-24 07:13:44 to 2004-02-24 14:12:10
Time Latitude Longitude Heading SOG COG Depth
2004-02-24 07:14:48 51°13.593 2°56.109 119.5   207 6.8
2004-02-24 07:15:48 51°13.593 2°56.11 122.1   6 6.8
2004-02-24 07:16:48 51°13.593 2°56.11 116.8 0.1 182 6.8
2004-02-24 07:17:48 51°13.604 2°56.067 119.6 3.6 298 -999
2004-02-24 07:18:48 51°13.64 2°55.955 121.2 5.3 298 -999
2004-02-24 07:19:49 51°13.678 2°55.823 109.9 5.4 289 -999
2004-02-24 07:20:48 51°13.696 2°55.771 60.8 2 35 13.2
2004-02-24 07:21:48 51°13.709 2°55.775 5.2 1.7 192 -999
2004-02-24 07:22:48 51°13.727 2°55.746 331.2 4.3 324 10.6
2004-02-24 07:23:48 51°13.811 2°55.653 330.9 7 327 9.6
2004-02-24 07:24:48 51°13.93 2°55.551 336.8 8.9 331 9
2004-02-24 07:25:48 51°14.063 2°55.449 341.3 8.3 336 9.1
2004-02-24 07:26:48 51°14.203 2°55.341 333.3 9.9 327 9.4
2004-02-24 07:27:48 51°14.33 2°55.134 315.9 11.8 311 9.5
2004-02-24 07:28:48 51°14.448 2°54.875 308.8 12 300 9.8
2004-02-24 07:29:48 51°14.544 2°54.676 323.8 8.1 313 9.7
2004-02-24 07:30:48 51°14.628 2°54.525 319.4 7.4 310 9.4
2004-02-24 07:31:48 51°14.702 2°54.373 316.5 7.2 309 9.5
2004-02-24 07:32:48 51°14.787 2°54.244 328.5 6.9 321 9.3
2004-02-24 07:33:48 51°14.891 2°54.116 330.2 10.4 323 8.6
2004-02-24 07:34:48 51°15.054 2°53.908 327.6 13.4 320 8.5
2004-02-24 07:35:48 51°15.235 2°53.694 338.2 13.6 332 8.8
2004-02-24 07:36:48 51°15.44 2°53.531 340.3 13.8 333 9.5
2004-02-24 07:37:48 51°15.645 2°53.361 340.8 13.9 332 10.2
2004-02-24 07:38:48 51°15.85 2°53.189 342.5 13.8 335 10.7
2004-02-24 07:39:48 51°16.063 2°53.061 350.5 13.7 342 11.2
2004-02-24 07:40:48 51°16.279 2°52.945 348.8 13.7 341 11.4
2004-02-24 07:41:48 51°16.493 2°52.825 349.1 13.7 341 11.1
2004-02-24 07:42:48 51°16.707 2°52.703 348.2 13.5 340 9.7
2004-02-24 07:43:48 51°16.918 2°52.584 347.9 13.4 341 8.8
2004-02-24 07:44:48 51°17.132 2°52.469 348 13.7 341 8.8
2004-02-24 07:45:48 51°17.349 2°52.348 347.3 13.8 340 9.1
2004-02-24 07:46:48 51°17.541 2°52.152 330.5 13.9 322 9.4
2004-02-24 07:47:48 51°17.684 2°51.864 313.1 13.8 306 9.3
2004-02-24 07:48:48 51°17.823 2°51.57 313.1 14 306 9.1
2004-02-24 07:49:48 51°17.965 2°51.272 315 14.3 307 9.9
2004-02-24 07:50:48 51°18.108 2°50.973 315.1 14.1 307 11.6
2004-02-24 07:51:48 51°18.251 2°50.678 315.1 14 308 12.4
2004-02-24 07:52:48 51°18.395 2°50.385 315.5 14 308 13.1
2004-02-24 07:53:48 51°18.539 2°50.097 314.8 13.8 309 12.9
2004-02-24 07:54:48 51°18.674 2°49.798 312.2 13.9 305 11.8
2004-02-24 07:55:48 51°18.807 2°49.496 312 13.9 306 9.5
2004-02-24 07:56:48 51°18.943 2°49.188 312.4 14.3 306 11
2004-02-24 07:57:48 51°19.081 2°48.881 312.2 14.3 305 13
2004-02-24 07:58:48 51°19.216 2°48.572 312.6 14.1 305 15.1
2004-02-24 07:59:48 51°19.348 2°48.266 310 13.9 303 17.5
2004-02-24 08:00:48 51°19.47 2°47.951 309.1 13.9 301 19.9
2004-02-24 08:01:48 51°19.593 2°47.634 309.3 13.9 301 20.8
2004-02-24 08:02:48 51°19.708 2°47.312 302.6 13.9 296 20.6
2004-02-24 08:03:48 51°19.806 2°46.972 301.6 14 295 19.7
2004-02-24 08:04:48 51°19.891 2°46.625 293.9 14.2 286 15.5
2004-02-24 08:05:48 51°19.961 2°46.263 293.9 14.3 288 12.1
2004-02-24 08:06:48 51°20.032 2°45.901 293.6 14.3 287 10.6
2004-02-24 08:07:48 51°20.103 2°45.535 294.4 14.6 288 18.8
2004-02-24 08:08:48 51°20.174 2°45.171 294.3 14.3 286 22
2004-02-24 08:09:48 51°20.227 2°44.805 289.3 14.1 283 23.3
2004-02-24 08:10:48 51°20.278 2°44.442 288.9 14 282 25
2004-02-24 08:11:48 51°20.324 2°44.078 286.7 13.9 283 25.8
2004-02-24 08:12:48 51°20.364 2°43.712 284.2 14 279 25.8
2004-02-24 08:13:48 51°20.385 2°43.398 280.5 8.4 272 25.5
2004-02-24 08:14:48 51°20.375 2°43.245 265.2 4.4 256 25
2004-02-24 08:15:48 51°20.361 2°43.161 265.6 2.5 254 24.9
2004-02-24 08:16:48 51°20.354 2°43.108 279.3 2.2 271 24.6
2004-02-24 08:17:48 51°20.401 2°42.923 296.2 11.4 288 23.1
2004-02-24 08:18:48 51°20.467 2°42.575 293.6 14.2 288 21.1
2004-02-24 08:19:48 51°20.532 2°42.209 292.4 14.3 285 17.9
2004-02-24 08:20:48 51°20.598 2°41.84 292.5 14.4 285 18.7
2004-02-24 08:21:48 51°20.653 2°41.468 288.1 14.4 281 22.3
2004-02-24 08:22:48 51°20.695 2°41.096 285.3 14.2 280 26
2004-02-24 08:23:48 51°20.734 2°40.723 285.9 14.2 279 25.3
2004-02-24 08:24:48 51°20.774 2°40.352 285.9 14.2 279 25
2004-02-24 08:25:48 51°20.803 2°39.974 282.9 14.4 276 24.8
2004-02-24 08:26:48 51°20.833 2°39.596 282.9 14.4 277 24
2004-02-24 08:27:48 51°20.863 2°39.218 282.7 14.1 278 23.9
2004-02-24 08:28:48 51°20.894 2°38.841 282.4 14.4 277 23.6
2004-02-24 08:29:48 51°20.923 2°38.46 283.8 14.4 278 23
2004-02-24 08:30:48 51°20.949 2°38.077 280.2 14.6 273 23.4
2004-02-24 08:31:48 51°20.965 2°37.69 280.4 14.6 273 23
2004-02-24 08:32:48 51°20.983 2°37.303 280.1 14.6 275 22.6
2004-02-24 08:33:48 51°21.001 2°36.916 280 14.7 275 22.4
2004-02-24 08:34:48 51°21.019 2°36.528 280 14.7 274 23.4
2004-02-24 08:35:48 51°21.037 2°36.137 280.8 14.7 273 23.4
2004-02-24 08:36:48 51°21.055 2°35.747 280 14.7 274 26
2004-02-24 08:37:48 51°21.117 2°35.389 314.9 13.5 315 29.6
2004-02-24 08:38:48 51°21.323 2°35.258 353.4 13.5 347 33.3
2004-02-24 08:39:48 51°21.54 2°35.171 354.4 13.4 346 29.7
2004-02-24 08:40:48 51°21.757 2°35.095 357.8 13.4 349 29.4
2004-02-24 08:41:48 51°21.977 2°35.026 357.3 13.4 348 28.3
2004-02-24 08:42:48 51°22.198 2°34.961 358.1 13.5 348 26.4
2004-02-24 08:43:48 51°22.42 2°34.895 357.5 13.6 350 25.2
2004-02-24 08:44:48 51°22.633 2°34.765 343.8 13.7 336 24
2004-02-24 08:45:48 51°22.829 2°34.574 333.1 13.8 322 30
2004-02-24 08:46:48 51°22.951 2°34.271 294.1 14.2 284 31.3
2004-02-24 08:47:48 51°22.997 2°33.897 285.7 14.5 278 29.9
2004-02-24 08:48:48 51°23.02 2°33.513 280.5 14.7 273 30
2004-02-24 08:49:48 51°23.035 2°33.124 277.8 14.7 270 30
2004-02-24 08:50:48 51°23.034 2°32.73 275.5 14.8 269 30.3
2004-02-24 08:51:48 51°23.032 2°32.334 276 15 270 29.4
2004-02-24 08:52:48 51°23.034 2°31.937 275.4 14.9 271 29.6
2004-02-24 08:53:48 51°23.034 2°31.538 277 15.1 269 26.8
2004-02-24 08:54:48 51°23.036 2°31.137 276.9 15 270 26.2
2004-02-24 08:55:48 51°23.033 2°30.739 272 14.8 266 28.5
2004-02-24 08:56:48 51°22.996 2°30.344 265.6 15.2 262 31.1
2004-02-24 08:57:48 51°22.961 2°29.95 267 15 262 31.4
2004-02-24 08:58:48 51°22.923 2°29.559 267.2 14.7 261 31.2
2004-02-24 08:59:48 51°22.888 2°29.169 266.4 14.8 260 32.3
2004-02-24 09:00:48 51°22.853 2°28.778 266.5 14.9 261 32.1
2004-02-24 09:01:48 51°22.816 2°28.388 267.3 15 262 32.3
2004-02-24 09:02:48 51°22.775 2°27.997 268 14.8 259 32.8
2004-02-24 09:03:48 51°22.735 2°27.604 267.7 15 261 33.4
2004-02-24 09:04:48 51°22.694 2°27.212 266.3 15 259 32.5
2004-02-24 09:05:48 51°22.663 2°26.819 272.3 14.9 263 31.8
2004-02-24 09:06:48 51°22.654 2°26.426 278.4 14.6 271 31.5
2004-02-24 09:07:48 51°22.695 2°26.042 294.3 14.4 286 25.6
2004-02-24 09:08:48 51°22.823 2°25.729 323.2 14 313 16.2
2004-02-24 09:09:48 51°23.01 2°25.512 342.5 13.6 334 26.8
2004-02-24 09:10:48 51°23.224 2°25.416 359.1 13.2 352 31.2
2004-02-24 09:11:48 51°23.443 2°25.418 10.1 13.3 3 31.2
2004-02-24 09:12:48 51°23.662 2°25.436 12.5 13 4 31.8
2004-02-24 09:13:48 51°23.875 2°25.472 13.7 12.7 6 31.6
2004-02-24 09:14:48 51°24.09 2°25.497 11.4 13.1 2 32.3
2004-02-24 09:15:48 51°24.301 2°25.521 12.6 12.7 2 32.7
2004-02-24 09:16:48 51°24.511 2°25.546 12.4 12.8 5 33.8
2004-02-24 09:17:48 51°24.722 2°25.567 11.8 12.7 4 32.5
2004-02-24 09:18:48 51°24.933 2°25.59 12.7 12.6 6 33.5
2004-02-24 09:19:48 51°25.143 2°25.636 14.6 12.7 9 33.7
2004-02-24 09:20:48 51°25.35 2°25.684 15.8 12.6 6 32.7
2004-02-24 09:21:48 51°25.559 2°25.735 16.1 12.8 9 30
2004-02-24 09:22:48 51°25.769 2°25.782 15.8 12.8 10 28.2
2004-02-24 09:23:48 51°25.977 2°25.826 16.4 12.6 6 27.1
2004-02-24 09:24:48 51°26.186 2°25.87 15 12.8 8 25.7
2004-02-24 09:25:48 51°26.395 2°25.912 13.5 12.8 4 22.1
2004-02-24 09:26:48 51°26.606 2°25.959 16 12.9 8 23.8
2004-02-24 09:27:48 51°26.815 2°26.005 14.4 12.8 9 28.4
2004-02-24 09:28:48 51°27.026 2°26.053 16 12.8 8 32.6
2004-02-24 09:29:48 51°27.235 2°26.105 16.2 12.5 14 32.2
2004-02-24 09:30:48 51°27.437 2°26.18 22.5 12.5 15 32.7
2004-02-24 09:31:48 51°27.637 2°26.279 26.6 12.5 19 32.3
2004-02-24 09:32:48 51°27.834 2°26.393 26.4 12.6 15 32.8
2004-02-24 09:33:48 51°28.032 2°26.502 25.9 12.5 17 33
2004-02-24 09:34:48 51°28.229 2°26.607 24.2 12.3 17 33
2004-02-24 09:35:48 51°28.428 2°26.704 24.2 12.7 19 33.6
2004-02-24 09:36:48 51°28.616 2°26.789 22 10.2 17 33.4
2004-02-24 09:37:48 51°28.752 2°26.798 359.3 5.8 349 33.6
2004-02-24 09:38:48 51°28.8 2°26.786 18.6 0.3 262 33.1
2004-02-24 09:39:48 51°28.799 2°26.781 7.1 0.3 200 33
2004-02-24 09:40:48 51°28.792 2°26.769 351.4 0.8 210 32.8
2004-02-24 09:41:48 51°28.782 2°26.759 344.1 0.7 210 33.6
2004-02-24 09:42:48 51°28.771 2°26.751 345 0.8 198 34.1
2004-02-24 09:43:48 51°28.759 2°26.745 344.6 0.7 188 33.4
2004-02-24 09:44:48 51°28.743 2°26.742 348.7 1.1 189 33.9
2004-02-24 09:45:48 51°28.737 2°26.736 355.3 2.3 335 33.6
2004-02-24 09:46:48 51°28.846 2°26.623 333.3 12 321 33.3
2004-02-24 09:47:48 51°29.01 2°26.405 331.6 12.9 319 33.1
2004-02-24 09:48:48 51°29.184 2°26.214 340.2 12.6 329 30.8
2004-02-24 09:49:48 51°29.371 2°26.062 343.8 12.6 334 28.4
2004-02-24 09:50:48 51°29.56 2°25.922 345.4 12.6 335 29.1
2004-02-24 09:51:48 51°29.749 2°25.776 345 12.6 334 30.5
2004-02-24 09:52:48 51°29.938 2°25.629 344.7 12.6 334 29.9
2004-02-24 09:53:48 51°30.124 2°25.483 344.7 12.5 337 26.6
2004-02-24 09:54:48 51°30.317 2°25.383 353.7 12 346 37.1
2004-02-24 09:55:48 51°30.512 2°25.287 353.5 12.2 341 37.6
2004-02-24 09:56:48 51°30.705 2°25.19 353.5 12.2 342 38.7
2004-02-24 09:57:48 51°30.901 2°25.105 359.7 12.2 350 37.8
2004-02-24 09:58:48 51°31.099 2°25.049 0.9 12.1 353 38.7
2004-02-24 09:59:48 51°31.294 2°25.094 20.2 11.8 11 38.3
2004-02-24 10:00:48 51°31.486 2°25.164 18.4 11.8 10 37.9
2004-02-24 10:01:48 51°31.681 2°25.229 17.6 12.1 10 36.8
2004-02-24 10:02:48 51°31.872 2°25.307 25.3 11.7 18 37
2004-02-24 10:03:48 51°32.059 2°25.4 23.4 11.9 21 38.3
2004-02-24 10:04:48 51°32.251 2°25.492 25.5 11.8 15 36.7
2004-02-24 10:05:48 51°32.434 2°25.608 30 11.8 25 36.7
2004-02-24 10:06:48 51°32.615 2°25.736 28.3 12.1 18 37.1
2004-02-24 10:07:48 51°32.795 2°25.866 32.9 12 20 35.8
2004-02-24 10:08:48 51°32.965 2°26.022 38.2 12.1 34 37.3
2004-02-24 10:09:48 51°33.137 2°26.181 37.3 11.9 26 37
2004-02-24 10:10:48 51°33.308 2°26.34 33.9 12 31 35.9
2004-02-24 10:11:48 51°33.481 2°26.502 38.5 11.9 35 34.6
2004-02-24 10:12:48 51°33.642 2°26.684 37.9 11.4 35 36.1
2004-02-24 10:13:48 51°33.796 2°26.872 41.6 11.8 33 36.4
2004-02-24 10:14:48 51°33.953 2°27.06 39 11.7 29 35.4
2004-02-24 10:15:48 51°34.114 2°27.247 36.5 11.7 36 34.6
2004-02-24 10:16:48 51°34.276 2°27.431 40.6 12 35 34.3
2004-02-24 10:17:48 51°34.441 2°27.608 38.3 11.8 36 35.7
2004-02-24 10:18:48 51°34.599 2°27.793 37.6 11.5 39 35.2
2004-02-24 10:19:48 51°34.755 2°27.983 44.8 12.2 41 34.7
2004-02-24 10:20:48 51°34.912 2°28.165 44.5 11.6 44 32.4
2004-02-24 10:21:48 51°35.068 2°28.352 41.7 11.8 39 34
2004-02-24 10:22:48 51°35.232 2°28.533 40.4 11.9 40 31.3
2004-02-24 10:23:48 51°35.391 2°28.714 40.1 11.9 36 31.9
2004-02-24 10:24:48 51°35.553 2°28.886 37.7 11.8 35 33.7
2004-02-24 10:25:48 51°35.717 2°29.056 37.8 11.9 34 30.1
2004-02-24 10:26:48 51°35.883 2°29.234 37.6 12.1 34 33.8
2004-02-24 10:27:48 51°36.05 2°29.415 39.9 11.8 33 34.4
2004-02-24 10:28:48 51°36.214 2°29.591 38.9 11.9 30 33.3
2004-02-24 10:29:48 51°36.375 2°29.764 39.9 11.9 38 35
2004-02-24 10:30:48 51°36.538 2°29.937 37 11.7 35 35.4
2004-02-24 10:31:48 51°36.696 2°30.115 38.9 11.7 39 33.3
2004-02-24 10:32:48 51°36.861 2°30.286 34.8 11.5 26 35.7
2004-02-24 10:33:48 51°37.024 2°30.455 38.4 11.9 31 34.7
2004-02-24 10:34:48 51°37.182 2°30.636 38.1 11.7 34 35.2
2004-02-24 10:35:48 51°37.345 2°30.813 33.7 11.5 37 36
2004-02-24 10:36:48 51°37.506 2°30.993 36.8 11.9 28 35.9
2004-02-24 10:37:48 51°37.665 2°31.173 37.3 11.8 39 36.1
2004-02-24 10:38:48 51°37.827 2°31.344 36.8 11.7 30 37.6
2004-02-24 10:39:48 51°37.987 2°31.523 37.7 11.9 34 38
2004-02-24 10:40:48 51°38.146 2°31.706 38.4 11.6 39 38.6
2004-02-24 10:41:48 51°38.306 2°31.884 37.4 11.9 34 40.1
2004-02-24 10:42:48 51°38.466 2°32.067 37.7 11.7 22 41.6
2004-02-24 10:43:48 51°38.626 2°32.246 35.4 11.8 35 40.3
2004-02-24 10:44:48 51°38.792 2°32.415 34.4 11.8 32 39.6
2004-02-24 10:45:48 51°38.955 2°32.583 35.9 11.7 33 40.6
2004-02-24 10:46:48 51°39.118 2°32.759 39.1 11.8 32 38.2
2004-02-24 10:47:48 51°39.282 2°32.927 33.3 11.7 32 39
2004-02-24 10:48:48 51°39.444 2°33.101 36.6 12 33 39.7
2004-02-24 10:49:48 51°39.611 2°33.278 36 12 33 41.3
2004-02-24 10:50:48 51°39.777 2°33.447 36.1 11.9 28 41.7
2004-02-24 10:51:48 51°39.944 2°33.62 40.1 11.9 33 41.1
2004-02-24 10:52:48 51°40.101 2°33.8 34.3 11.7 43 41
2004-02-24 10:53:48 51°40.266 2°33.963 36.2 11.4 36 41.1
2004-02-24 10:54:48 51°40.431 2°34.133 36.2 11.9 37 38.6
2004-02-24 10:55:48 51°40.6 2°34.298 34.2 11.5 33 37.6
2004-02-24 10:56:48 51°40.768 2°34.468 37 11.9 30 37.6
2004-02-24 10:57:48 51°40.933 2°34.635 39.8 11.7 24 35.6
2004-02-24 10:58:48 51°41.1 2°34.805 36.9 12 29 35.5
2004-02-24 10:59:48 51°41.269 2°34.974 34.5 11.9 30 35.8
2004-02-24 11:00:48 51°41.433 2°35.147 35.2 11.8 33 35.7
2004-02-24 11:01:48 51°41.605 2°35.312 34.3 11.8 32 30.5
2004-02-24 11:02:48 51°41.773 2°35.477 33.9 11.6 29 34.6
2004-02-24 11:03:48 51°41.938 2°35.648 37.8 11.8 38 30.4
2004-02-24 11:04:48 51°42.103 2°35.816 37.7 11.8 31 25.8
2004-02-24 11:05:48 51°42.266 2°35.991 37.5 11.7 35 32.2
2004-02-24 11:06:48 51°42.409 2°36.203 51.5 12.4 50 33.4
2004-02-24 11:07:48 51°42.5 2°36.483 72.5 11.8 75 33
2004-02-24 11:08:48 51°42.426 2°36.79 126.4 13.8 131 31
2004-02-24 11:09:48 51°42.263 2°37.057 129.6 14.2 138 30.8
2004-02-24 11:10:48 51°42.1 2°37.329 124.9 13.6 134 30.2
2004-02-24 11:11:48 51°41.977 2°37.634 120.3 13.9 117 34.5
2004-02-24 11:12:48 51°41.851 2°37.93 120.3 13.4 124 37.6
2004-02-24 11:13:48 51°41.721 2°38.236 122.4 13.2 123 39.1
2004-02-24 11:14:48 51°41.593 2°38.543 121.6 13.7 122 39.9
2004-02-24 11:15:48 51°41.467 2°38.852 117.4 14.4 129 38.5
2004-02-24 11:16:48 51°41.341 2°39.151 118.3 13.8 121 38.7
2004-02-24 11:17:48 51°41.204 2°39.452 122.6 13.8 132 37.2
2004-02-24 11:18:48 51°41.08 2°39.756 117.8 13.5 119 38.7
2004-02-24 11:19:48 51°40.952 2°40.058 121.5 13.4 130 36.6
2004-02-24 11:20:48 51°40.84 2°40.37 119 13.8 128 38.9
2004-02-24 11:21:48 51°40.725 2°40.68 116.7 13.4 120 34.6
2004-02-24 11:22:48 51°40.616 2°40.99 116.1 13 122 37
2004-02-24 11:23:48 51°40.497 2°41.301 118.2 13.6 112 34.2
2004-02-24 11:24:48 51°40.383 2°41.61 116 13.6 116 30.5
2004-02-24 11:25:48 51°40.275 2°41.922 114.8 13.7 118 28.6
2004-02-24 11:26:48 51°40.167 2°42.228 115.4 13.3 117 30.8
2004-02-24 11:27:48 51°40.056 2°42.542 119.3 13.2 122 32.2
2004-02-24 11:28:48 51°39.94 2°42.858 116.1 14 128 31.6
2004-02-24 11:29:48 51°39.824 2°43.17 121.1 13.4 121 34.2
2004-02-24 11:30:48 51°39.704 2°43.485 115.9 13.9 125 35.6
2004-02-24 11:31:48 51°39.595 2°43.806 117.8 14 122 35.4
2004-02-24 11:32:48 51°39.443 2°44.095 128.1 14.4 129 36.8
2004-02-24 11:33:48 51°39.273 2°44.353 135.4 14 135 37.3
2004-02-24 11:34:48 51°39.077 2°44.572 147.7 14.2 150 36.5
2004-02-24 11:35:48 51°38.863 2°44.745 160.1 14.4 160 37.7
2004-02-24 11:36:48 51°38.625 2°44.804 185.4 14.7 182 33.6
2004-02-24 11:37:48 51°38.427 2°44.608 237.3 14.4 231 33.2
2004-02-24 11:38:49 51°38.286 2°44.288 249.5 14.4 242 34.1
2004-02-24 11:39:48 51°38.189 2°43.949 256.1 14.4 248 36
2004-02-24 11:40:48 51°38.147 2°43.578 277.2 14 266 34.3
2004-02-24 11:41:48 51°38.135 2°43.205 278.6 14 266 36.3
2004-02-24 11:42:48 51°38.122 2°42.838 278.4 13.8 267 36.6
2004-02-24 11:43:48 51°38.106 2°42.473 277.2 14 266 35.5
2004-02-24 11:44:48 51°38.089 2°42.104 277.5 13.5 266 32.8
2004-02-24 11:45:48 51°38.119 2°41.757 297.4 12.8 284 23.5
2004-02-24 11:46:48 51°38.181 2°41.415 296.7 14 282 22.2
2004-02-24 11:47:48 51°38.206 2°41.052 285 13.7 273 25.6
2004-02-24 11:48:48 51°38.188 2°40.678 265.1 14.2 255 25.4
2004-02-24 11:49:48 51°38.08 2°40.341 239 13.7 230 30.8
2004-02-24 11:50:48 51°37.901 2°40.092 216.7 14.5 215 33.9
2004-02-24 11:51:49 51°37.679 2°39.925 206.1 14.3 199 34.4
2004-02-24 11:52:48 51°37.464 2°39.777 206.2 14.6 203 34.8
2004-02-24 11:53:48 51°37.251 2°39.624 209.1 14.4 207 36.6
2004-02-24 11:54:48 51°37.036 2°39.464 207.8 14 204 37.2
2004-02-24 11:55:48 51°36.819 2°39.291 210 14.5 206 37.6
2004-02-24 11:56:48 51°36.601 2°39.119 210.7 14.2 204 36.8
2004-02-24 11:57:48 51°36.379 2°38.97 203.2 14.7 197 36.6
2004-02-24 11:58:48 51°36.15 2°38.843 201.5 14.5 196 37.3
2004-02-24 11:59:48 51°35.917 2°38.729 200.3 14.8 196 37.8
2004-02-24 12:00:48 51°35.686 2°38.621 200.1 14.3 194 37.3
2004-02-24 12:01:48 51°35.45 2°38.586 169.9 14.4 166 38.4
2004-02-24 12:02:48 51°35.236 2°38.752 148.7 14.3 153 37.4
2004-02-24 12:03:48 51°35.03 2°38.944 149.8 14.1 154 34.4
2004-02-24 12:04:48 51°34.827 2°39.139 147.6 14.2 148 31.7
2004-02-24 12:05:48 51°34.627 2°39.347 147.9 14.5 156 26.8
2004-02-24 12:06:48 51°34.43 2°39.556 146.3 13.7 152 24.4
2004-02-24 12:07:48 51°34.232 2°39.758 144.4 14.1 152 19.1
2004-02-24 12:08:48 51°34.028 2°39.951 152.5 14.7 155 17.2
2004-02-24 12:09:48 51°33.796 2°40.076 167.1 14.8 168 34.1
2004-02-24 12:10:48 51°33.55 2°40.1 184.7 14.9 186 37.9
2004-02-24 12:11:48 51°33.3 2°40.047 189.9 14.9 187 39.9
2004-02-24 12:12:48 51°33.051 2°39.994 189.1 15.2 187 39
2004-02-24 12:13:48 51°32.805 2°39.921 194.3 15.2 190 38.6
2004-02-24 12:14:48 51°32.562 2°39.836 194.8 15 195 38.2
2004-02-24 12:15:48 51°32.318 2°39.756 194.1 14.8 193 39.4
2004-02-24 12:16:48 51°32.073 2°39.679 192.8 15.1 190 36.5
2004-02-24 12:17:48 51°31.828 2°39.599 193.7 14.7 195 38.7
2004-02-24 12:18:48 51°31.586 2°39.521 193.2 15.1 195 38.5
2004-02-24 12:19:48 51°31.341 2°39.442 193.2 15 192 37.3
2004-02-24 12:20:48 51°31.095 2°39.361 193.7 15.3 191 38
2004-02-24 12:21:48 51°30.849 2°39.282 193.5 14.9 191 38.7
2004-02-24 12:22:48 51°30.605 2°39.202 193.4 15 191 39
2004-02-24 12:23:48 51°30.378 2°39.057 211 14.5 205 39.9
2004-02-24 12:24:48 51°30.159 2°38.881 213.3 14.5 210 39.5
2004-02-24 12:25:48 51°29.959 2°38.667 222.8 14.3 215 38.3
2004-02-24 12:26:48 51°29.772 2°38.439 226.4 14.4 219 38.1
2004-02-24 12:27:48 51°29.596 2°38.185 228.4 14.4 223 37.9
2004-02-24 12:28:48 51°29.419 2°37.929 228.2 14.1 221 37.8
2004-02-24 12:29:48 51°29.243 2°37.675 226.9 14.1 219 37.5
2004-02-24 12:30:48 51°29.064 2°37.421 226.4 14.4 223 37.1
2004-02-24 12:31:49 51°28.883 2°37.163 227.2 14.1 220 36
2004-02-24 12:32:48 51°28.683 2°36.985 205 14.5 199 37.1
2004-02-24 12:33:49 51°28.441 2°36.91 186.6 14.7 184 38.2
2004-02-24 12:34:48 51°28.202 2°36.926 177.8 14.9 179 37.2
2004-02-24 12:35:48 51°27.963 2°36.982 165.3 14.9 173 36.5
2004-02-24 12:36:48 51°27.731 2°37.069 162.2 14.3 162 35.9
2004-02-24 12:37:48 51°27.504 2°37.193 159.2 14.3 152 33.3
2004-02-24 12:38:48 51°27.286 2°37.353 153 14.2 159 33.1
2004-02-24 12:39:48 51°27.073 2°37.52 154.8 14.4 149 33.1
2004-02-24 12:40:48 51°26.855 2°37.671 155.5 14 157 34.3
2004-02-24 12:41:49 51°26.638 2°37.839 156.2 14.7 152 34.9
2004-02-24 12:42:48 51°26.419 2°37.988 151.5 14.5 158 33.3
2004-02-24 12:43:48 51°26.201 2°38.144 153.8 14.9 159 33.6
2004-02-24 12:44:49 51°25.98 2°38.303 155 14.4 154 34.3
2004-02-24 12:45:48 51°25.767 2°38.459 156.5 14.5 153 33.8
2004-02-24 12:46:48 51°25.557 2°38.632 150.2 14.4 151 36.7
2004-02-24 12:47:48 51°25.345 2°38.802 157.4 14.3 153 32.2
2004-02-24 12:48:48 51°25.122 2°38.932 160.4 14.2 161 30.9
2004-02-24 12:49:48 51°24.901 2°39.059 162.7 14 158 29.5
2004-02-24 12:50:48 51°24.681 2°39.191 160.6 13.9 159 27.7
2004-02-24 12:51:48 51°24.454 2°39.314 164.7 14.6 163 27.2
2004-02-24 12:52:48 51°24.225 2°39.389 172.7 13.9 170 27.5
2004-02-24 12:53:48 51°23.992 2°39.407 181.2 14 181 27.6
2004-02-24 12:54:48 51°23.759 2°39.405 188.1 13.7 185 28.7
2004-02-24 12:55:48 51°23.536 2°39.31 205.2 13.7 203 29.6
2004-02-24 12:56:48 51°23.326 2°39.167 207.5 13.6 203 30
2004-02-24 12:57:48 51°23.129 2°38.992 217.3 13.8 214 31.3
2004-02-24 12:58:48 51°22.935 2°38.815 213.4 13.5 208 31.8
2004-02-24 12:59:48 51°22.736 2°38.663 211 13.3 205 31.6
2004-02-24 13:00:48 51°22.522 2°38.558 195.4 13.5 192 31.1
2004-02-24 13:01:48 51°22.296 2°38.535 185.6 13.7 179 32.1
2004-02-24 13:02:48 51°22.07 2°38.597 168.3 14.1 158 31.3
2004-02-24 13:03:48 51°21.851 2°38.717 162.5 14.1 159 29.8
2004-02-24 13:04:48 51°21.64 2°38.874 157.5 14.3 152 28.5
2004-02-24 13:05:48 51°21.427 2°39.036 155.7 13.8 154 28.1
2004-02-24 13:06:48 51°21.237 2°39.258 142.9 14.8 137 26.8
2004-02-24 13:07:48 51°21.07 2°39.52 137.1 14 130 27.5
2004-02-24 13:08:48 51°20.931 2°39.824 125.7 14.5 117 27.6
2004-02-24 13:09:48 51°20.826 2°40.163 118.3 14.1 116 28.8
2004-02-24 13:10:48 51°20.728 2°40.506 119.7 14.1 112 28.7
2004-02-24 13:11:48 51°20.635 2°40.864 115.6 15.2 109 28.6
2004-02-24 13:12:48 51°20.545 2°41.219 113.9 14.8 110 28.7
2004-02-24 13:13:48 51°20.462 2°41.588 110.7 14.6 111 23
2004-02-24 13:14:48 51°20.366 2°41.946 115.2 14.9 116 19.8
2004-02-24 13:15:48 51°20.273 2°42.312 116.3 15.2 110 23.6
2004-02-24 13:16:48 51°20.185 2°42.681 113.7 14.6 116 26.8
2004-02-24 13:17:48 51°20.095 2°43.039 115.5 14.4 108 28.3
2004-02-24 13:18:48 51°20.011 2°43.388 113.8 14 114 28.4
2004-02-24 13:19:48 51°19.925 2°43.738 116.7 14.1 108 28.2
2004-02-24 13:20:48 51°19.842 2°44.09 116.7 14.4 112 26.3
2004-02-24 13:21:48 51°19.758 2°44.445 113.2 14.6 109 25.6
2004-02-24 13:22:48 51°19.676 2°44.802 118.5 14.4 116 24
2004-02-24 13:23:48 51°19.596 2°45.157 117.1 15 109 20.2
2004-02-24 13:24:48 51°19.508 2°45.524 115 15.4 114 14.7
2004-02-24 13:25:48 51°19.425 2°45.898 115.2 15 108 18.7
2004-02-24 13:26:49 51°19.347 2°46.268 113.4 13.9 110 22.2
2004-02-24 13:27:48 51°19.272 2°46.621 113.2 14 117 23
2004-02-24 13:28:48 51°19.198 2°46.981 113.9 14.9 109 23.4
2004-02-24 13:29:48 51°19.11 2°47.337 115.3 14.8 110 22.8
2004-02-24 13:30:49 51°19.027 2°47.705 116.1 14.5 111 21.1
2004-02-24 13:31:48 51°18.94 2°48.053 115.8 14.4 111 19.5
2004-02-24 13:32:48 51°18.837 2°48.4 120.4 14.3 110 16.6
2004-02-24 13:33:48 51°18.734 2°48.753 116.8 14.2 113 14.5
2004-02-24 13:34:48 51°18.636 2°49.11 120.2 14.5 113 13.5
2004-02-24 13:35:48 51°18.538 2°49.467 121.2 14.9 110 13.6
2004-02-24 13:36:48 51°18.441 2°49.832 120.2 14.4 110 16.1
2004-02-24 13:37:48 51°18.348 2°50.19 117.4 14.5 106 16.9
2004-02-24 13:38:48 51°18.259 2°50.547 114.5 14.5 112 16.5
2004-02-24 13:39:48 51°18.154 2°50.889 128.5 14.2 122 15.6
2004-02-24 13:40:48 51°18.026 2°51.217 128.7 14.9 126 14.5
2004-02-24 13:41:48 51°17.899 2°51.548 129.6 15.1 124 13.1
2004-02-24 13:42:48 51°17.766 2°51.866 134.8 14.3 129 13
2004-02-24 13:43:48 51°17.608 2°52.142 144.8 14.5 135 13.1
2004-02-24 13:44:48 51°17.441 2°52.392 155.2 12.7 144 13.1
2004-02-24 13:45:49 51°17.241 2°52.57 161.6 13.6 147 12.7
2004-02-24 13:46:48 51°17.046 2°52.739 162.5 13.6 149 13.1
2004-02-24 13:47:49 51°16.848 2°52.917 161.1 13.1 151 11.9
2004-02-24 13:48:48 51°16.65 2°53.078 170.5 13.8 159 14.4
2004-02-24 13:49:49 51°16.437 2°53.206 172.1 13.9 157 15
2004-02-24 13:50:48 51°16.234 2°53.331 169.3 13.4 161 15.1
2004-02-24 13:51:48 51°16.029 2°53.467 172.1 13.3 159 14.8
2004-02-24 13:52:48 51°15.823 2°53.598 170.2 13.5 161 14.3
2004-02-24 13:53:48 51°15.62 2°53.735 169.1 12.9 153 13.9
2004-02-24 13:54:48 51°15.462 2°53.852 171.1 9.9 152 13.2
2004-02-24 13:55:48 51°15.296 2°53.979 170.2 12.8 155 12.9
2004-02-24 13:56:49 51°15.091 2°54.109 171.2 13.2 160 12.1
2004-02-24 13:57:48 51°14.896 2°54.255 166.8 13.2 152 12.2
2004-02-24 13:58:48 51°14.694 2°54.405 164.7 13.5 151 13.2
2004-02-24 13:59:49 51°14.53 2°54.661 139.8 14.6 120 13.6
2004-02-24 14:00:48 51°14.398 2°54.975 135.2 14.5 121 13.7
2004-02-24 14:01:48 51°14.271 2°55.247 135.3 10.9 128 14
2004-02-24 14:02:49 51°14.152 2°55.401 155.9 8.2 152 13.5
2004-02-24 14:03:49 51°14.037 2°55.489 157.5 7.3 154 13.5
2004-02-24 14:04:48 51°13.932 2°55.568 159.1 7 154 13.2
2004-02-24 14:05:48 51°13.826 2°55.646 160.2 7 156 13.5
2004-02-24 14:06:48 51°13.737 2°55.739 140.8 6.2 136 12.9
2004-02-24 14:07:48 51°13.672 2°55.866 129.4 6.2 124 12.6
2004-02-24 14:08:48 51°13.626 2°55.991 121.9 4.9 117 13.2
2004-02-24 14:09:48 51°13.597 2°56.088 116.3 2.7 114 11.6
2004-02-24 14:10:48 51°13.592 2°56.105 123.7 0.1 169 10.7
2004-02-24 14:11:48 51°13.593 2°56.106 131.2 0.2 318 10.8